createdAt,value
2023-02-12T00:02:15.524Z,7.29
2023-02-12T00:04:41.864Z,7.32
2023-02-12T00:07:08.256Z,7.30
2023-02-12T00:09:34.579Z,7.20
2023-02-12T00:12:00.896Z,7.25
2023-02-12T00:14:27.234Z,7.27
2023-02-12T00:16:53.546Z,7.22
2023-02-12T00:19:20.054Z,7.25
2023-02-12T00:21:46.364Z,7.29
2023-02-12T00:24:12.664Z,7.37
2023-02-12T00:26:38.998Z,7.33
2023-02-12T00:29:05.341Z,7.31
2023-02-12T00:31:32.246Z,7.28
2023-02-12T00:33:59.647Z,7.34
2023-02-12T00:36:28.599Z,7.28
2023-02-12T00:38:55.845Z,7.40
2023-02-12T00:41:23.139Z,7.28
2023-02-12T00:43:50.143Z,7.33
2023-02-12T00:46:16.966Z,7.31
2023-02-12T00:48:43.788Z,7.32
2023-02-12T00:51:10.365Z,7.24
2023-02-12T00:53:37.098Z,7.25
2023-02-12T00:56:04.179Z,7.31
2023-02-12T00:58:30.687Z,7.31
2023-02-12T01:00:57.000Z,7.29
2023-02-12T01:03:23.709Z,7.11
2023-02-12T01:05:50.042Z,7.13
2023-02-12T01:08:16.915Z,7.13
2023-02-12T01:10:44.223Z,7.14
2023-02-12T01:13:14.104Z,7.24
2023-02-12T01:15:41.505Z,7.23
2023-02-12T01:18:08.146Z,7.25
2023-02-12T01:20:34.444Z,7.22
2023-02-12T01:23:00.806Z,7.23
2023-02-12T01:25:27.473Z,7.22
2023-02-12T01:27:54.090Z,7.29
2023-02-12T01:30:20.596Z,7.31
2023-02-12T01:32:46.907Z,7.32
2023-02-12T01:35:13.210Z,7.38
2023-02-12T01:37:39.542Z,7.37
2023-02-12T01:40:08.471Z,7.36
2023-02-12T01:42:35.184Z,7.36
2023-02-12T01:45:28.214Z,7.30
2023-02-12T01:47:54.619Z,7.32
2023-02-12T01:50:21.230Z,7.31
2023-02-12T01:52:54.048Z,7.30
2023-02-12T01:55:20.765Z,7.29
2023-02-12T01:57:48.460Z,7.27
2023-02-12T02:00:21.297Z,7.22
2023-02-12T02:02:51.348Z,7.28
2023-02-12T02:05:25.137Z,7.23
2023-02-12T02:07:53.605Z,7.18
2023-02-12T02:10:20.136Z,7.24
2023-02-12T02:12:46.482Z,7.27
2023-02-12T02:15:12.841Z,7.26
2023-02-12T02:18:07.056Z,7.22
2023-02-12T02:21:00.497Z,7.18
2023-02-12T02:23:32.748Z,7.27
2023-02-12T02:26:17.390Z,7.29
2023-02-12T02:28:55.863Z,7.18
2023-02-12T02:31:43.899Z,7.15
2023-02-12T02:34:29.128Z,7.22
2023-02-12T02:37:12.562Z,7.10
2023-02-12T02:39:46.574Z,7.19
2023-02-12T02:42:29.077Z,7.15
2023-02-12T02:45:03.956Z,7.16
2023-02-12T02:47:33.777Z,7.03
2023-02-12T02:50:05.705Z,7.04
2023-02-12T02:52:39.596Z,7.09
2023-02-12T02:55:09.356Z,7.07
2023-02-12T02:57:41.430Z,7.00
2023-02-12T03:00:14.466Z,7.08
2023-02-12T03:02:48.568Z,7.10
2023-02-12T03:05:24.749Z,6.92
2023-02-12T03:07:57.704Z,6.94
2023-02-12T03:10:29.324Z,6.98
2023-02-12T03:13:06.996Z,6.88
2023-02-12T03:15:41.029Z,6.90
2023-02-12T03:18:11.563Z,6.86
2023-02-12T03:20:45.586Z,6.84
2023-02-12T03:23:19.453Z,6.74
2023-02-12T03:25:59.245Z,6.67
2023-02-12T03:28:31.575Z,6.70
2023-02-12T03:31:20.616Z,6.69
2023-02-12T03:34:12.129Z,6.75
2023-02-12T03:37:02.110Z,6.79
2023-02-12T03:39:47.226Z,6.82
2023-02-12T03:42:18.751Z,6.86
2023-02-12T03:45:01.627Z,6.85
2023-02-12T03:47:34.673Z,6.86
2023-02-12T03:50:19.836Z,6.83
2023-02-12T03:52:47.428Z,6.86
2023-02-12T03:55:14.307Z,6.85
2023-02-12T03:57:44.268Z,6.87
2023-02-12T04:00:23.542Z,6.84
2023-02-12T04:02:50.067Z,6.74
2023-02-12T04:05:25.634Z,6.78
2023-02-12T04:07:53.575Z,6.86
2023-02-12T04:10:28.246Z,6.75
2023-02-12T04:13:00.233Z,6.83
2023-02-12T04:15:59.152Z,6.82
2023-02-12T04:18:39.057Z,6.75
2023-02-12T04:21:38.155Z,6.71
2023-02-12T04:24:32.328Z,6.72
2023-02-12T04:27:04.709Z,6.74
2023-02-12T04:30:00.871Z,6.71
2023-02-12T04:32:37.693Z,6.67
2023-02-12T04:35:26.282Z,6.62
2023-02-12T04:37:59.512Z,6.69
2023-02-12T04:40:26.700Z,6.75
2023-02-12T04:42:53.945Z,6.81
2023-02-12T04:45:27.155Z,6.71
2023-02-12T04:47:53.649Z,6.64
2023-02-12T04:50:20.398Z,6.75
2023-02-12T04:52:46.819Z,6.77
2023-02-12T04:55:13.728Z,6.74
2023-02-12T04:57:40.044Z,6.61
2023-02-12T05:00:09.297Z,6.68
2023-02-12T05:02:35.783Z,6.67
2023-02-12T05:05:02.355Z,6.62
2023-02-12T05:07:28.726Z,6.56
2023-02-12T05:09:55.026Z,6.63
2023-02-12T05:12:21.424Z,6.63
2023-02-12T05:14:47.799Z,6.61
2023-02-12T05:17:14.109Z,6.63
2023-02-12T05:19:40.403Z,6.64
2023-02-12T05:22:06.802Z,6.66
2023-02-12T05:24:33.169Z,6.66
2023-02-12T05:26:59.464Z,6.59
2023-02-12T05:29:25.809Z,6.61
2023-02-12T05:31:52.151Z,6.59
2023-02-12T05:34:18.586Z,6.59
2023-02-12T05:36:44.876Z,6.58
2023-02-12T05:39:11.323Z,6.66
2023-02-12T05:41:37.731Z,6.59
2023-02-12T05:44:05.539Z,6.63
2023-02-12T05:46:32.761Z,6.63
2023-02-12T05:48:59.201Z,6.55
2023-02-12T05:51:26.574Z,6.56
2023-02-12T05:53:57.433Z,6.57
2023-02-12T05:56:27.453Z,6.56
2023-02-12T05:58:56.736Z,6.57
2023-02-12T06:01:28.956Z,6.61
2023-02-12T06:03:55.689Z,6.57
2023-02-12T06:06:22.169Z,6.45
2023-02-12T06:08:49.505Z,6.48
2023-02-12T06:11:16.541Z,6.51
2023-02-12T06:13:43.221Z,6.46
2023-02-12T06:16:28.733Z,6.34
2023-02-12T06:18:56.362Z,6.43
2023-02-12T06:21:24.624Z,6.41
2023-02-12T06:23:51.898Z,6.42
2023-02-12T06:26:18.208Z,6.36
2023-02-12T06:28:45.180Z,6.38
2023-02-12T06:31:19.008Z,6.40
2023-02-12T06:33:45.394Z,6.43
2023-02-12T06:36:11.742Z,6.50
2023-02-12T06:38:38.058Z,6.50
2023-02-12T06:41:04.738Z,6.55
2023-02-12T06:43:31.169Z,6.51
2023-02-12T06:46:01.237Z,6.45
2023-02-12T06:48:27.656Z,6.43
2023-02-12T06:50:54.085Z,6.30
2023-02-12T06:53:20.434Z,6.47
2023-02-12T06:55:46.812Z,6.47
2023-02-12T06:58:13.174Z,6.44
2023-02-12T07:00:39.504Z,6.42
2023-02-12T07:03:05.810Z,6.50
2023-02-12T07:05:32.120Z,6.51
2023-02-12T07:07:58.514Z,6.55
2023-02-12T07:10:24.935Z,6.61
2023-02-12T07:12:51.314Z,6.56
2023-02-12T07:15:17.718Z,6.57
2023-02-12T07:17:44.078Z,6.61
2023-02-12T07:20:10.900Z,6.70
2023-02-12T07:22:37.891Z,6.79
2023-02-12T07:25:04.838Z,6.68
2023-02-12T07:27:31.233Z,6.64
2023-02-12T07:29:57.529Z,6.61
2023-02-12T07:32:23.834Z,6.54
2023-02-12T07:34:50.148Z,6.65
2023-02-12T07:37:16.570Z,6.70
2023-02-12T07:39:42.873Z,6.77
2023-02-12T07:42:09.244Z,6.75
2023-02-12T07:44:35.546Z,6.67
2023-02-12T07:47:01.861Z,6.77
2023-02-12T07:49:28.157Z,6.69
2023-02-12T07:51:54.460Z,6.72
2023-02-12T07:54:20.758Z,6.78
2023-02-12T07:56:47.516Z,6.77
2023-02-12T07:59:16.706Z,6.85
2023-02-12T08:01:51.199Z,6.82
2023-02-12T08:04:20.353Z,6.85
2023-02-12T08:06:49.579Z,6.96
2023-02-12T08:09:19.479Z,6.91
2023-02-12T08:11:46.366Z,6.86
2023-02-12T08:14:17.808Z,6.98
2023-02-12T08:16:46.226Z,6.92
2023-02-12T08:19:20.903Z,7.00
2023-02-12T08:21:50.905Z,7.04
2023-02-12T08:24:17.447Z,6.97
2023-02-12T08:26:43.900Z,6.92
2023-02-12T08:29:14.217Z,6.85
2023-02-12T08:31:43.314Z,6.86
2023-02-12T08:34:26.352Z,6.91
2023-02-12T08:36:53.738Z,6.88
2023-02-12T08:39:20.534Z,6.84
2023-02-12T08:41:47.135Z,7.00
2023-02-12T08:44:15.032Z,6.99
2023-02-12T08:46:45.590Z,6.87
2023-02-12T08:49:20.756Z,7.01
2023-02-12T08:51:51.295Z,6.97
2023-02-12T08:54:20.155Z,6.95
2023-02-12T08:56:46.913Z,7.13
2023-02-12T08:59:14.981Z,7.22
2023-02-12T09:01:42.355Z,7.39
2023-02-12T09:04:14.084Z,7.52
2023-02-12T09:06:40.465Z,7.46
2023-02-12T09:09:06.780Z,7.57
2023-02-12T09:11:34.865Z,7.53
2023-02-12T09:14:04.684Z,7.73
2023-02-12T09:16:33.667Z,7.76
2023-02-12T09:19:00.264Z,7.84
2023-02-12T09:21:26.906Z,7.91
2023-02-12T09:23:53.502Z,7.93
2023-02-12T09:26:22.504Z,7.87
2023-02-12T09:28:49.927Z,7.84
2023-02-12T09:31:19.730Z,7.69
2023-02-12T09:33:47.967Z,7.73
2023-02-12T09:36:17.237Z,7.92
2023-02-12T09:38:43.916Z,8.04
2023-02-12T09:41:46.854Z,8.23
2023-02-12T09:44:31.783Z,8.01
2023-02-12T09:47:23.293Z,7.85
2023-02-12T09:50:21.097Z,7.93
2023-02-12T09:52:48.899Z,8.08
2023-02-12T09:55:18.085Z,8.07
2023-02-12T09:57:44.962Z,8.06
2023-02-12T10:00:26.951Z,8.10
2023-02-12T10:02:53.875Z,8.27
2023-02-12T10:05:26.764Z,8.31
2023-02-12T10:08:04.984Z,8.26
2023-02-12T10:10:39.750Z,8.27
2023-02-12T10:13:21.982Z,8.49
2023-02-12T10:15:59.874Z,8.62
2023-02-12T10:18:59.930Z,8.57
2023-02-12T10:21:57.295Z,8.54
2023-02-12T10:24:46.585Z,8.52
2023-02-12T10:27:16.193Z,8.46
2023-02-12T10:29:44.796Z,8.54
2023-02-12T10:32:25.437Z,8.41
2023-02-12T10:34:53.580Z,8.51
2023-02-12T10:37:40.451Z,8.45
2023-02-12T10:40:17.656Z,8.46
2023-02-12T10:42:47.216Z,8.56
2023-02-12T10:45:16.582Z,8.62
2023-02-12T10:47:44.797Z,8.71
2023-02-12T10:50:21.747Z,8.80
2023-02-12T10:52:55.074Z,8.80
2023-02-12T10:55:30.787Z,8.70
2023-02-12T10:57:58.957Z,8.68
2023-02-12T11:00:29.157Z,8.69
2023-02-12T11:03:13.659Z,8.69
2023-02-12T11:05:42.772Z,8.63
2023-02-12T11:08:29.345Z,8.65
2023-02-12T11:11:02.459Z,8.77
2023-02-12T11:13:28.822Z,8.72
2023-02-12T11:15:55.575Z,8.60
2023-02-12T11:18:25.052Z,8.59
2023-02-12T11:20:54.457Z,8.60
2023-02-12T11:23:36.240Z,8.77
2023-02-12T11:26:06.972Z,8.94
2023-02-12T11:28:36.416Z,8.85
2023-02-12T11:31:12.047Z,8.81
2023-02-12T11:33:39.040Z,8.90
2023-02-12T11:36:17.716Z,8.78
2023-02-12T11:38:51.680Z,8.73
2023-02-12T11:41:26.912Z,8.86
2023-02-12T11:43:53.756Z,9.19
2023-02-12T11:46:24.737Z,9.15
2023-02-12T11:48:53.062Z,8.94
2023-02-12T11:51:26.711Z,9.26
2023-02-12T11:53:55.750Z,9.27
2023-02-12T11:56:22.243Z,9.16
2023-02-12T11:58:49.633Z,9.32
2023-02-12T12:01:19.668Z,9.53
2023-02-12T12:03:55.893Z,9.58
2023-02-12T12:06:38.701Z,9.18
2023-02-12T12:09:39.392Z,8.96
2023-02-12T12:12:37.547Z,8.86
2023-02-12T12:15:17.686Z,9.14
2023-02-12T12:17:54.266Z,9.31
2023-02-12T12:20:27.602Z,9.19
2023-02-12T12:23:03.217Z,8.97
2023-02-12T12:25:37.276Z,8.83
2023-02-12T12:28:33.760Z,8.62
2023-02-12T12:31:25.710Z,8.45
2023-02-12T12:33:55.165Z,8.27
2023-02-12T12:36:39.548Z,8.10
2023-02-12T12:39:24.947Z,8.00
2023-02-12T12:42:09.908Z,7.79
2023-02-12T12:44:56.225Z,7.98
2023-02-12T12:47:53.429Z,8.18
2023-02-12T12:50:50.033Z,8.18
2023-02-12T12:53:34.776Z,8.08
2023-02-12T12:56:07.158Z,8.42
2023-02-12T12:58:40.036Z,8.66
2023-02-12T13:01:37.258Z,8.68
2023-02-12T13:04:17.052Z,8.73
2023-02-12T13:06:55.979Z,8.82
2023-02-12T13:09:48.076Z,8.72
2023-02-12T13:12:26.409Z,8.81
2023-02-12T13:15:01.031Z,8.85
2023-02-12T13:17:37.508Z,8.87
2023-02-12T13:20:21.953Z,8.95
2023-02-12T13:22:59.133Z,8.95
2023-02-12T13:25:56.911Z,8.91
2023-02-12T13:28:36.227Z,8.88
2023-02-12T13:31:30.047Z,8.75
2023-02-12T13:33:58.286Z,8.73
2023-02-12T13:36:24.658Z,8.69
2023-02-12T13:39:02.826Z,8.82
2023-02-12T13:41:29.949Z,8.70
2023-02-12T13:44:06.111Z,8.64
2023-02-12T13:46:50.785Z,8.61
2023-02-12T13:49:23.109Z,8.86
2023-02-12T13:52:00.587Z,8.92
2023-02-12T13:54:51.100Z,8.76
2023-02-12T13:57:19.527Z,8.77
2023-02-12T13:59:53.523Z,8.86
2023-02-12T14:02:27.393Z,8.99
2023-02-12T14:04:53.713Z,8.99
2023-02-12T14:07:21.398Z,9.07
2023-02-12T14:09:50.613Z,8.92
2023-02-12T14:12:27.847Z,8.92
2023-02-12T14:15:04.185Z,8.83
2023-02-12T14:17:30.432Z,8.76
2023-02-12T14:20:20.906Z,8.52
2023-02-12T14:22:47.206Z,8.24
2023-02-12T14:25:16.251Z,8.77
2023-02-12T14:27:49.696Z,8.79
2023-02-12T14:30:30.733Z,8.80
2023-02-12T14:33:16.648Z,8.91
2023-02-12T14:35:45.505Z,8.79
2023-02-12T14:38:11.779Z,8.74
2023-02-12T14:40:46.104Z,8.73
2023-02-12T14:43:37.085Z,8.27
2023-02-12T14:46:29.481Z,8.50
2023-02-12T14:49:01.342Z,8.65
2023-02-12T14:52:03.746Z,8.68
2023-02-12T14:54:43.571Z,8.58
2023-02-12T14:57:31.278Z,8.49
2023-02-12T15:00:01.769Z,8.53
2023-02-12T15:02:32.391Z,8.54
2023-02-12T15:05:07.408Z,8.58
2023-02-12T15:07:53.583Z,8.49
2023-02-12T15:10:23.338Z,8.31
2023-02-12T15:13:09.681Z,8.33
2023-02-12T15:15:45.439Z,8.27
2023-02-12T15:18:29.165Z,8.51
2023-02-12T15:21:19.274Z,8.31
2023-02-12T15:23:46.055Z,8.27
2023-02-12T15:26:15.757Z,8.19
2023-02-12T15:28:45.517Z,8.25
2023-02-12T15:31:16.791Z,8.23
2023-02-12T15:33:51.559Z,8.27
2023-02-12T15:36:23.957Z,8.23
2023-02-12T15:39:02.410Z,8.23
2023-02-12T15:41:31.724Z,8.22
2023-02-12T15:43:59.489Z,8.13
2023-02-12T15:46:26.080Z,8.05
2023-02-12T15:48:52.705Z,7.97
2023-02-12T15:51:30.105Z,8.03
2023-02-12T15:53:59.476Z,8.12
2023-02-12T15:56:26.985Z,8.11
2023-02-12T15:58:56.170Z,8.04
2023-02-12T16:01:27.733Z,7.98
2023-02-12T16:04:00.293Z,7.94
2023-02-12T16:06:30.713Z,7.93
2023-02-12T16:09:16.526Z,7.87
2023-02-12T16:11:45.360Z,7.86
2023-02-12T16:14:22.005Z,7.84
2023-02-12T16:16:51.915Z,7.86
2023-02-12T16:19:18.146Z,7.91
2023-02-12T16:21:47.506Z,7.79
2023-02-12T16:24:24.217Z,7.77
2023-02-12T16:26:55.659Z,7.77
2023-02-12T16:29:22.053Z,7.81
2023-02-12T16:32:01.979Z,7.66
2023-02-12T16:34:37.591Z,7.73
2023-02-12T16:37:38.824Z,7.71
2023-02-12T16:40:17.350Z,7.68
2023-02-12T16:42:46.430Z,7.74
2023-02-12T16:45:40.144Z,7.61
2023-02-12T16:48:14.730Z,7.53
2023-02-12T16:50:47.995Z,7.51
2023-02-12T16:53:32.196Z,7.49
2023-02-12T16:55:59.720Z,7.55
2023-02-12T16:58:26.448Z,7.63
2023-02-12T17:00:54.830Z,7.66
2023-02-12T17:03:21.442Z,7.51
2023-02-12T17:05:47.825Z,7.56
2023-02-12T17:08:16.934Z,7.61
2023-02-12T17:10:43.859Z,7.63
2023-02-12T17:13:10.593Z,7.62
2023-02-12T17:15:52.506Z,7.47
2023-02-12T17:18:19.750Z,7.50
2023-02-12T17:20:56.607Z,7.45
2023-02-12T17:23:23.941Z,7.44
2023-02-12T17:25:50.277Z,7.47
2023-02-12T17:28:16.760Z,7.53
2023-02-12T17:30:43.351Z,7.54
2023-02-12T17:33:10.357Z,7.52
2023-02-12T17:35:39.697Z,7.40
2023-02-12T17:38:06.920Z,7.42
2023-02-12T17:40:36.325Z,7.42
2023-02-12T17:43:04.002Z,7.49
2023-02-12T17:45:30.391Z,7.39
2023-02-12T17:47:57.007Z,7.43
2023-02-12T17:50:23.556Z,7.42
2023-02-12T17:52:50.115Z,7.37
2023-02-12T17:55:16.498Z,7.33
2023-02-12T17:57:43.248Z,7.33
2023-02-12T18:00:11.975Z,7.34
2023-02-12T18:02:38.807Z,7.35
2023-02-12T18:05:05.473Z,7.35
2023-02-12T18:07:36.966Z,7.40
2023-02-12T18:10:07.567Z,7.36
2023-02-12T18:12:34.488Z,7.27
2023-02-12T18:15:02.767Z,7.25
2023-02-12T18:17:29.889Z,7.31
2023-02-12T18:19:56.386Z,7.43
2023-02-12T18:22:23.464Z,7.43
2023-02-12T18:24:50.307Z,7.36
2023-02-12T18:27:16.710Z,7.33
2023-02-12T18:29:43.018Z,7.27
2023-02-12T18:32:09.358Z,7.30
2023-02-12T18:34:35.766Z,7.36
2023-02-12T18:37:02.124Z,7.37
2023-02-12T18:39:28.528Z,7.32
2023-02-12T18:41:54.957Z,7.39
2023-02-12T18:44:21.390Z,7.46
2023-02-12T18:46:47.769Z,7.39
2023-02-12T18:49:14.095Z,7.40
2023-02-12T18:51:40.499Z,7.21
2023-02-12T18:54:10.926Z,7.07
2023-02-12T18:56:43.446Z,7.25
2023-02-12T18:59:12.859Z,7.24
2023-02-12T19:01:39.884Z,7.35
2023-02-12T19:04:08.068Z,7.31
2023-02-12T19:06:40.632Z,7.48
2023-02-12T19:09:07.805Z,7.57
2023-02-12T19:11:35.696Z,7.37
2023-02-12T19:14:02.058Z,7.26
2023-02-12T19:16:28.688Z,7.25
2023-02-12T19:18:56.560Z,7.37
2023-02-12T19:21:23.690Z,7.44
2023-02-12T19:23:52.969Z,7.34
2023-02-12T19:26:19.327Z,7.19
2023-02-12T19:28:45.716Z,7.13
2023-02-12T19:31:15.235Z,7.12
2023-02-12T19:33:42.937Z,7.14
2023-02-12T19:36:11.651Z,7.13
2023-02-12T19:38:38.397Z,7.12
2023-02-12T19:41:09.872Z,7.08
2023-02-12T19:43:37.254Z,7.15
2023-02-12T19:46:06.413Z,7.08
2023-02-12T19:48:32.764Z,7.13
2023-02-12T19:50:59.171Z,6.97
2023-02-12T19:53:26.620Z,7.11
2023-02-12T19:55:52.972Z,7.07
2023-02-12T19:58:19.394Z,7.22
2023-02-12T20:00:45.773Z,7.04
2023-02-12T20:03:12.221Z,7.18
2023-02-12T20:05:38.607Z,7.32
2023-02-12T20:08:04.925Z,7.29
2023-02-12T20:10:31.260Z,7.09
2023-02-12T20:12:57.573Z,7.15
2023-02-12T20:15:23.890Z,7.17
2023-02-12T20:17:50.194Z,7.15
2023-02-12T20:20:16.554Z,7.11
2023-02-12T20:22:42.843Z,7.18
2023-02-12T20:25:09.150Z,7.07
2023-02-12T20:27:35.465Z,7.18
2023-02-12T20:30:01.895Z,7.28
2023-02-12T20:32:28.223Z,7.22
2023-02-12T20:34:54.536Z,7.30
2023-02-12T20:37:20.865Z,7.36
2023-02-12T20:39:47.199Z,7.35
2023-02-12T20:42:13.485Z,7.27
2023-02-12T20:44:39.789Z,7.12
2023-02-12T20:47:06.101Z,7.04
2023-02-12T20:49:32.595Z,7.11
2023-02-12T20:51:58.938Z,7.23
2023-02-12T20:54:25.261Z,7.23
2023-02-12T20:56:51.640Z,7.23
2023-02-12T20:59:18.406Z,7.29
2023-02-12T21:01:44.770Z,7.29
2023-02-12T21:04:14.851Z,7.27
2023-02-12T21:06:41.514Z,7.27
2023-02-12T21:09:09.495Z,7.31
2023-02-12T21:11:36.324Z,7.17
2023-02-12T21:14:20.273Z,7.12
2023-02-12T21:16:47.393Z,7.15
2023-02-12T21:19:13.901Z,7.16
2023-02-12T21:21:41.587Z,7.10
2023-02-12T21:24:11.278Z,7.16
2023-02-12T21:26:37.749Z,7.10
2023-02-12T21:29:04.525Z,7.18
2023-02-12T21:31:36.081Z,7.18
2023-02-12T21:34:04.753Z,7.16
2023-02-12T21:36:33.830Z,7.15
2023-02-12T21:39:00.644Z,7.06
2023-02-12T21:41:32.436Z,7.13
2023-02-12T21:44:01.191Z,7.10
2023-02-12T21:46:28.544Z,7.07
2023-02-12T21:48:55.585Z,7.09
2023-02-12T21:51:21.909Z,6.98
2023-02-12T21:53:50.042Z,7.00
2023-02-12T21:56:17.226Z,7.01
2023-02-12T21:58:44.162Z,6.97
2023-02-12T22:01:13.416Z,6.97
2023-02-12T22:03:39.979Z,6.95
2023-02-12T22:06:08.350Z,6.98
2023-02-12T22:08:35.697Z,7.05
2023-02-12T22:11:04.103Z,6.90
2023-02-12T22:13:30.882Z,6.88
2023-02-12T22:15:57.766Z,6.89
2023-02-12T22:18:24.151Z,6.91
2023-02-12T22:20:50.461Z,6.95
2023-02-12T22:23:16.785Z,6.86
2023-02-12T22:25:43.096Z,6.77
2023-02-12T22:28:09.462Z,6.71
2023-02-12T22:30:35.912Z,6.71
2023-02-12T22:33:02.211Z,6.76
2023-02-12T22:35:28.513Z,6.73
2023-02-12T22:37:54.805Z,6.81
2023-02-12T22:40:21.326Z,6.87
2023-02-12T22:42:47.628Z,6.98
2023-02-12T22:45:14.061Z,6.95
2023-02-12T22:47:40.360Z,6.87
2023-02-12T22:50:07.305Z,6.85
2023-02-12T22:52:33.607Z,6.79
2023-02-12T22:54:59.920Z,6.69
2023-02-12T22:57:26.222Z,6.78
2023-02-12T22:59:52.534Z,6.84
2023-02-12T23:02:18.824Z,6.84
2023-02-12T23:04:45.216Z,6.77
2023-02-12T23:07:11.596Z,6.88
2023-02-12T23:09:38.138Z,6.86
2023-02-12T23:12:04.669Z,6.89
2023-02-12T23:14:30.988Z,6.94
2023-02-12T23:16:57.319Z,6.99
2023-02-12T23:19:23.650Z,6.89
2023-02-12T23:21:49.944Z,6.86
2023-02-12T23:24:16.293Z,6.92
2023-02-12T23:26:42.905Z,6.83
2023-02-12T23:29:09.250Z,6.72
2023-02-12T23:31:35.686Z,6.60
2023-02-12T23:34:02.099Z,6.68
2023-02-12T23:36:28.445Z,6.74
2023-02-12T23:38:55.538Z,6.71
2023-02-12T23:41:21.895Z,6.72
2023-02-12T23:43:48.205Z,6.70
2023-02-12T23:46:14.552Z,6.63
2023-02-12T23:48:40.952Z,6.63
2023-02-12T23:51:07.260Z,6.72
2023-02-12T23:53:33.542Z,6.78
2023-02-12T23:55:59.852Z,6.90
2023-02-12T23:58:26.254Z,6.96
